CST,Max TemperatureF,Mean TemperatureF,Min TemperatureF,Max Dew PointF,MeanDew PointF,Min DewpointF,Max Humidity, Mean Humidity, Min Humidity, Max Sea Level PressureIn, Mean Sea Level PressureIn, Min Sea Level PressureIn, Max VisibilityMiles, Mean VisibilityMiles, Min VisibilityMiles, Max Wind SpeedMPH, Mean Wind SpeedMPH, Max Gust SpeedMPH,PrecipitationIn, CloudCover, Events, WindDirDegrees
2013-1-1,27,18,9,18,12,6,92,67,42,30.39,30.29,30.20,10,8,3,15,4,20,T,5,Snow,16
2013-1-2,31,20,8,21,15,9,100,80,60,30.32,30.23,30.14,10,8,3,12,5,14,0.00,3,,241
2013-1-3,32,20,8,24,16,7,100,82,63,30.50,30.42,30.28,10,7,0,8,3,13,0.00,4,Fog,248
2013-1-4,40,22,4,26,14,3,92,76,59,30.43,30.34,30.23,10,7,0,17,3,23,0.00,0,,216
2013-1-5,44,33,21,31,26,19,84,71,57,30.26,30.17,30.07,10,10,10,21,10,29,0.00,3,,232
2013-1-6,45,32,18,25,21,15,88,64,40,30.43,30.34,30.24,10,10,10,10,3,14,0.00,0,,210
2013-1-7,54,42,29,27,25,22,69,52,35,30.20,30.10,29.99,10,10,10,24,12,30,0.00,0,,211
2013-1-8,58,42,26,33,29,25,85,61,36,30.23,30.02,29.90,10,10,10,22,10,28,0.00,0,,227
2013-1-9,57,39,21,32,27,21,96,69,41,30.47,30.37,30.24,10,9,6,13,0,15,0.00,0,,134
2013-1-10,46,43,39,45,41,31,100,83,65,30.30,29.91,29.72,10,4,0,17,5,24,0.27,7,Fog-Rain,106
2013-1-11,60,49,37,45,41,19,100,63,26,29.84,29.62,29.47,10,8,0,25,15,35,0.00,5,Fog,205
2013-1-12,37,27,17,28,13,7,70,58,46,30.18,30.08,29.83,10,10,10,14,7,21,0.00,4,,346
2013-1-13,29,21,12,8,5,3,73,54,34,30.42,30.31,30.19,10,10,10,13,5,18,0.00,0,,314
2013-1-14,33,20,7,15,10,3,88,62,36,30.56,30.46,30.37,10,10,10,8,1,12,0.00,0,,261
2013-1-15,36,24,12,15,11,9,88,62,35,30.41,30.32,30.19,10,10,10,8,1,13,0.00,2,,215
2013-1-16,57,35,13,31,24,12,88,62,36,30.26,30.12,30.04,10,10,10,12,5,17,0.00,1,,254
2013-1-17,55,38,21,32,27,19,96,67,38,30.52,30.42,30.30,10,10,10,12,3,15,0.00,0,,239
2013-1-18,62,50,38,32,30,28,70,50,30,30.35,30.15,30.00,10,10,10,33,17,44,0.00,0,,218
2013-1-19,66,46,26,32,27,23,82,51,20,30.29,30.09,29.96,10,10,10,17,6,21,0.00,0,,270
2013-1-20,38,29,19,28,13,8,75,55,35,30.47,30.37,30.31,10,10,10,14,7,20,0.00,0,,40
2013-1-21,28,20,12,14,10,7,84,67,50,30.50,30.44,30.39,10,10,10,13,4,17,0.00,3,,61
2013-1-22,36,25,14,13,9,4,73,56,38,30.41,30.34,30.26,10,10,10,14,5,17,0.00,0,,101
2013-1-23,48,30,12,23,16,9,88,63,37,30.47,30.29,30.21,10,10,10,20,6,23,0.00,0,,27
2013-1-24,29,20,11,17,5,1,67,49,31,30.51,30.37,30.20,10,10,10,20,10,26,0.00,3,,80
2013-1-25,51,33,15,22,18,13,84,58,32,30.26,30.23,30.19,10,10,10,9,2,10,0.00,1,,258
2013-1-26,61,41,21,37,22,16,88,54,19,30.26,30.15,30.01,10,10,8,22,7,29,0.05,3,Rain,176
2013-1-27,61,50,39,54,44,37,93,80,67,30.00,29.81,29.69,10,7,1,24,9,31,0.06,7,Rain,187
2013-1-28,77,55,33,59,44,34,100,66,31,29.85,29.74,29.56,10,7,1,28,11,37,0.00,3,,184
2013-1-29,67,50,33,60,35,30,96,83,70,29.70,29.62,29.52,10,8,1,21,8,26,0.20,7,Snow,357
2013-1-30,34,22,9,31,20,8,96,80,63,30.02,29.83,29.63,10,5,1,21,9,36,0.11,7,Snow,331
2013-1-31,21,10,-1,15,6,-4,92,71,49,30.54,30.28,29.99,10,10,8,20,5,29,T,4,Snow,344